Time;durP1;ratioP1;P1;durP2;ratioP2;P2;SDS_P1;SDS_P2;PMS_P1;PMS_P2;Temp;Humidity;BMP_temperature;BMP_pressure;BME280_temperature;BME280_humidity;BME280_pressure;Samples;Min_cycle;Max_cycle;Signal;HPM_P1;HPM_P2
2021/05/11 00:00:37;;;;;;;7.53;3.00;;;17.20;99.90;;;;;;4964215;28;20247;-81
2021/05/11 00:03:22;;;;;;;7.33;3.27;;;17.10;99.90;;;;;;4965520;28;20217;-81
2021/05/11 00:06:08;;;;;;;7.07;2.97;;;17.10;99.90;;;;;;4974312;28;20216;-81
2021/05/11 00:08:52;;;;;;;5.37;2.97;;;17.00;99.90;;;;;;4964516;28;20226;-81
2021/05/11 00:11:38;;;;;;;5.47;2.87;;;17.00;99.90;;;;;;4980894;28;20208;-80
2021/05/11 00:14:23;;;;;;;7.57;3.00;;;16.90;99.90;;;;;;4968967;28;20362;-81
2021/05/11 00:17:07;;;;;;;5.27;2.80;;;16.90;99.90;;;;;;4968239;28;20229;-79
2021/05/11 00:19:52;;;;;;;5.13;3.03;;;16.80;99.90;;;;;;4975561;28;20372;-81
2021/05/11 00:22:38;;;;;;;5.40;2.80;;;16.80;99.90;;;;;;4975988;28;20696;-81
2021/05/11 00:25:22;;;;;;;6.77;3.50;;;16.70;99.90;;;;;;4975108;28;20579;-79
2021/05/11 00:28:07;;;;;;;3.93;3.03;;;16.60;99.90;;;;;;4978757;28;20237;-79
2021/05/11 00:30:53;;;;;;;4.93;3.03;;;16.60;99.90;;;;;;4973271;28;20245;-81
2021/05/11 00:33:38;;;;;;;7.50;3.17;;;16.60;99.90;;;;;;4982602;28;20349;-81
2021/05/11 00:36:23;;;;;;;8.67;3.80;;;16.50;99.90;;;;;;4984082;28;20234;-80
2021/05/11 00:39:08;;;;;;;11.37;3.87;;;16.50;99.90;;;;;;4971527;28;20813;-79
2021/05/11 00:41:53;;;;;;;6.60;3.67;;;16.40;99.90;;;;;;4983043;28;20202;-79
2021/05/11 00:44:38;;;;;;;5.87;3.27;;;16.40;99.90;;;;;;4984408;28;20209;-79
2021/05/11 00:47:23;;;;;;;7.43;3.97;;;16.40;99.90;;;;;;4986032;28;20236;-80
2021/05/11 00:50:09;;;;;;;6.50;4.13;;;16.40;99.90;;;;;;4984566;28;20221;-79
2021/05/11 00:52:55;;;;;;;8.40;4.60;;;16.30;99.90;;;;;;4979168;28;20223;-79
2021/05/11 00:55:41;;;;;;;8.03;4.63;;;16.30;99.90;;;;;;4957513;28;20289;-81
2021/05/11 00:58:26;;;;;;;10.50;4.83;;;16.30;99.90;;;;;;4960515;28;20266;-79
2021/05/11 01:01:11;;;;;;;9.07;5.17;;;16.20;99.90;;;;;;4973021;28;20230;-80
2021/05/11 01:03:56;;;;;;;8.37;4.87;;;16.30;99.90;;;;;;4974076;28;20660;-81
2021/05/11 01:06:41;;;;;;;8.33;5.00;;;16.20;99.90;;;;;;4981482;28;20289;-79
2021/05/11 01:09:27;;;;;;;7.90;5.70;;;16.20;99.90;;;;;;4978472;28;20232;-81
2021/05/11 01:12:13;;;;;;;9.90;5.20;;;16.20;99.90;;;;;;4973949;28;20784;-79
2021/05/11 01:14:58;;;;;;;10.57;5.27;;;16.20;99.90;;;;;;4971357;28;20217;-81
2021/05/11 01:17:50;;;;;;;10.00;5.57;;;16.10;99.90;;;;;;4972128;28;20694;-79
2021/05/11 01:20:38;;;;;;;10.23;5.93;;;16.10;99.90;;;;;;4962291;28;20232;-81
2021/05/11 01:23:54;;;;;;;10.47;5.70;;;16.10;99.90;;;;;;4983465;28;20260;-79
2021/05/11 01:26:46;;;;;;;7.97;5.57;;;16.00;99.90;;;;;;4982291;28;20207;-79
2021/05/11 01:29:42;;;;;;;12.10;7.17;;;15.90;99.90;;;;;;4972685;28;20231;-81
2021/05/11 01:32:48;;;;;;;11.97;6.37;;;15.90;99.90;;;;;;4971372;28;20698;-79
2021/05/11 01:47:58;;;;;;;9.63;5.70;;;15.50;99.90;;;;;;4983554;28;20281;-77
2021/05/11 01:50:48;;;;;;;10.00;6.17;;;15.50;99.90;;;;;;4994799;28;20609;-77
2021/05/11 01:53:50;;;;;;;9.17;5.83;;;15.40;99.90;;;;;;4971841;28;20262;-79
2021/05/11 01:56:57;;;;;;;14.00;6.50;;;15.40;99.90;;;;;;4984116;28;20577;-80
2021/05/11 02:23:57;;;;;;;10.97;6.67;;;14.90;99.90;;;;;;4965866;28;20232;-81
2021/05/11 02:26:41;;;;;;;10.80;6.90;;;14.80;99.90;;;;;;4970560;28;20293;-81
2021/05/11 02:29:27;;;;;;;14.77;7.33;;;14.80;99.90;;;;;;4967736;28;20261;-81
2021/05/11 02:32:16;;;;;;;11.13;6.03;;;14.80;99.90;;;;;;4978552;28;20252;-81
2021/05/11 02:35:01;;;;;;;13.70;6.83;;;14.80;99.90;;;;;;4964931;28;20237;-80
2021/05/11 02:37:46;;;;;;;12.10;6.67;;;14.70;99.90;;;;;;4990125;28;20237;-77
2021/05/11 02:40:31;;;;;;;9.40;7.10;;;14.70;99.90;;;;;;4987888;28;20225;-80
2021/05/11 02:43:18;;;;;;;12.03;8.50;;;14.80;99.90;;;;;;4973366;28;20240;-80
2021/05/11 02:46:04;;;;;;;12.30;6.10;;;14.70;99.90;;;;;;4971504;28;20213;-80
2021/05/11 02:48:49;;;;;;;14.50;8.23;;;14.60;99.90;;;;;;4960031;28;20216;-80
2021/05/11 02:51:34;;;;;;;13.40;8.20;;;14.60;99.90;;;;;;4962363;28;20783;-80
2021/05/11 02:54:18;;;;;;;13.90;8.10;;;14.60;99.90;;;;;;4978951;28;20300;-80
2021/05/11 02:57:03;;;;;;;15.80;7.57;;;14.60;99.90;;;;;;4973173;28;20209;-79
2021/05/11 02:59:49;;;;;;;10.93;7.53;;;14.50;99.90;;;;;;4972931;28;20235;-80
2021/05/11 03:02:35;;;;;;;16.07;7.13;;;14.50;99.90;;;;;;4978178;28;20278;-78
2021/05/11 03:05:20;;;;;;;11.73;6.13;;;14.50;99.90;;;;;;4990070;28;20219;-79
2021/05/11 03:08:06;;;;;;;12.13;6.50;;;14.40;99.90;;;;;;4986949;28;20211;-80
2021/05/11 03:10:52;;;;;;;12.50;6.33;;;14.40;99.90;;;;;;4976699;28;21016;-79
2021/05/11 03:13:37;;;;;;;11.47;6.00;;;14.40;99.90;;;;;;4981676;28;20305;-79
2021/05/11 03:16:24;;;;;;;11.10;6.40;;;14.40;99.90;;;;;;4961577;28;20204;-80
2021/05/11 03:19:09;;;;;;;12.23;6.70;;;14.40;99.90;;;;;;4984082;28;20210;-80
2021/05/11 03:21:55;;;;;;;10.03;6.03;;;14.40;99.90;;;;;;4972815;28;20259;-78
2021/05/11 03:24:44;;;;;;;10.37;6.13;;;14.30;99.90;;;;;;4966747;28;20246;-80
2021/05/11 03:27:29;;;;;;;9.37;6.13;;;14.30;99.90;;;;;;4974988;28;20210;-79
2021/05/11 03:30:15;;;;;;;9.67;5.73;;;14.30;99.90;;;;;;4971006;28;20236;-78
2021/05/11 03:33:01;;;;;;;13.27;6.33;;;14.30;99.90;;;;;;4960463;28;20723;-78
2021/05/11 03:35:47;;;;;;;12.90;6.47;;;14.40;99.90;;;;;;4971642;28;20266;-78
2021/05/11 03:38:32;;;;;;;12.10;5.67;;;14.30;99.90;;;;;;4967102;28;20346;-77
2021/05/11 03:41:18;;;;;;;11.27;6.43;;;14.30;99.90;;;;;;4971037;28;20232;-79
2021/05/11 03:44:05;;;;;;;10.93;5.27;;;14.30;99.90;;;;;;4971596;28;20215;-78
2021/05/11 03:46:53;;;;;;;9.00;5.73;;;14.30;99.90;;;;;;4961303;28;20220;-79
2021/05/11 03:49:38;;;;;;;9.43;5.50;;;14.30;99.90;;;;;;4967643;28;20255;-79
2021/05/11 03:52:24;;;;;;;9.70;5.33;;;14.30;99.90;;;;;;4975384;28;20258;-78
2021/05/11 03:55:10;;;;;;;10.67;5.23;;;14.30;99.90;;;;;;4961279;28;20210;-78
2021/05/11 03:57:55;;;;;;;10.97;5.10;;;14.30;99.90;;;;;;4959339;28;20220;-79
2021/05/11 04:00:41;;;;;;;7.03;5.20;;;14.30;99.90;;;;;;4972737;28;20239;-79
2021/05/11 04:03:28;;;;;;;13.50;5.40;;;14.30;99.90;;;;;;4959577;28;20210;-78
2021/05/11 04:06:13;;;;;;;7.63;4.70;;;14.30;99.90;;;;;;4961433;28;20276;-78
2021/05/11 04:09:04;;;;;;;8.13;4.93;;;14.30;99.90;;;;;;4964403;28;20368;-79
2021/05/11 04:12:04;;;;;;;10.70;5.27;;;14.30;99.90;;;;;;4979750;28;20206;-78
2021/05/11 04:17:45;;;;;;;10.43;5.33;;;14.20;99.90;;;;;;4970904;28;20208;-80
2021/05/11 04:20:29;;;;;;;10.47;5.30;;;14.30;99.90;;;;;;4976850;28;20231;-80
2021/05/11 04:23:14;;;;;;;10.23;5.40;;;14.30;99.90;;;;;;4981025;28;20228;-79
2021/05/11 04:26:00;;;;;;;10.03;5.00;;;14.30;99.90;;;;;;4981000;28;20229;-80
2021/05/11 04:28:48;;;;;;;10.90;5.20;;;14.30;99.90;;;;;;4974554;28;20219;-76
2021/05/11 04:31:37;;;;;;;9.77;4.90;;;14.30;99.90;;;;;;4971106;28;20214;-77
2021/05/11 04:34:23;;;;;;;8.03;4.67;;;14.30;99.90;;;;;;4957784;28;20227;-78
2021/05/11 04:37:08;;;;;;;9.73;4.90;;;14.30;99.90;;;;;;4968991;28;21182;-77
2021/05/11 04:39:54;;;;;;;9.57;4.77;;;14.40;99.90;;;;;;4965695;28;20234;-79
2021/05/11 04:42:42;;;;;;;9.77;4.80;;;14.40;99.90;;;;;;4967578;28;20586;-79
2021/05/11 04:45:32;;;;;;;12.43;4.60;;;14.40;99.90;;;;;;4963387;28;20217;-80
2021/05/11 04:48:17;;;;;;;9.33;4.93;;;14.50;99.90;;;;;;4959584;28;20202;-79
2021/05/11 04:51:02;;;;;;;10.70;4.83;;;14.50;99.90;;;;;;4963722;28;20261;-80
2021/05/11 04:53:49;;;;;;;12.00;5.67;;;14.60;99.90;;;;;;4964817;28;20667;-80
2021/05/11 04:56:34;;;;;;;8.53;5.07;;;14.60;99.90;;;;;;4962383;28;20269;-80
2021/05/11 04:59:19;;;;;;;10.97;5.37;;;14.60;99.90;;;;;;4960657;28;21063;-80
2021/05/11 05:02:05;;;;;;;10.80;5.40;;;14.70;99.90;;;;;;4965306;28;20205;-81
2021/05/11 05:04:49;;;;;;;12.77;5.27;;;14.70;99.90;;;;;;4961122;28;20230;-80
2021/05/11 05:07:35;;;;;;;8.77;4.97;;;14.70;99.90;;;;;;4961723;28;20214;-80
2021/05/11 05:10:20;;;;;;;12.40;5.53;;;14.80;99.90;;;;;;4963298;28;20275;-79
2021/05/11 05:13:05;;;;;;;11.77;5.23;;;14.80;99.90;;;;;;4966215;28;20231;-80
2021/05/11 05:15:51;;;;;;;11.20;5.43;;;14.80;99.90;;;;;;4965395;28;20337;-80
2021/05/11 05:18:36;;;;;;;8.80;4.97;;;15.00;99.90;;;;;;4963810;28;20216;-80
2021/05/11 05:21:21;;;;;;;11.03;5.33;;;14.90;99.90;;;;;;4969114;28;20250;-80
2021/05/11 05:24:11;;;;;;;10.10;5.90;;;15.00;99.90;;;;;;4973612;28;20239;-80
2021/05/11 05:27:00;;;;;;;8.27;5.40;;;15.00;99.90;;;;;;4966186;28;20240;-81
2021/05/11 05:29:45;;;;;;;8.97;5.17;;;15.10;99.90;;;;;;4965542;28;20232;-81
2021/05/11 05:32:31;;;;;;;8.43;4.60;;;15.10;99.90;;;;;;4968694;28;20237;-79
2021/05/11 05:35:15;;;;;;;10.97;5.47;;;15.10;99.90;;;;;;4971756;28;20215;-81
2021/05/11 05:38:00;;;;;;;8.60;5.27;;;15.20;99.90;;;;;;4974485;28;20289;-82
2021/05/11 05:40:44;;;;;;;12.10;5.93;;;15.20;99.90;;;;;;4970281;28;20723;-81
2021/05/11 05:43:29;;;;;;;12.03;6.00;;;15.20;99.90;;;;;;4996332;28;20188;-78
2021/05/11 05:46:14;;;;;;;10.13;5.43;;;15.30;99.90;;;;;;4986684;28;20201;-81
2021/05/11 05:49:00;;;;;;;11.67;4.93;;;15.30;99.90;;;;;;4973225;28;20340;-80
2021/05/11 05:51:48;;;;;;;9.53;5.07;;;15.40;99.90;;;;;;4966883;28;20212;-81
2021/05/11 05:54:32;;;;;;;9.20;5.27;;;15.40;99.90;;;;;;4980332;28;20244;-78
2021/05/11 05:57:17;;;;;;;10.60;5.33;;;15.40;99.90;;;;;;4994369;28;20190;-79
2021/05/11 06:00:03;;;;;;;9.50;4.90;;;15.50;99.90;;;;;;4993312;28;20261;-79
2021/05/11 06:02:51;;;;;;;13.93;5.07;;;15.50;99.90;;;;;;4989332;28;20239;-79
2021/05/11 06:05:37;;;;;;;9.90;4.80;;;15.70;99.90;;;;;;4976691;28;20253;-80
2021/05/11 06:08:22;;;;;;;9.13;5.23;;;15.70;99.90;;;;;;4965510;28;20212;-81
2021/05/11 06:11:12;;;;;;;11.43;5.57;;;15.80;99.90;;;;;;4960082;28;20265;-78
2021/05/11 06:14:08;;;;;;;11.17;4.97;;;15.90;99.90;;;;;;4960402;28;20255;-79
2021/05/11 06:17:13;;;;;;;8.27;5.40;;;16.00;99.90;;;;;;4971142;28;20211;-79
2021/05/11 06:19:58;;;;;;;9.40;5.40;;;16.10;99.90;;;;;;4962817;28;20249;-80
2021/05/11 06:22:44;;;;;;;9.07;4.80;;;16.10;99.90;;;;;;4969666;28;20277;-80
2021/05/11 06:25:28;;;;;;;10.07;5.50;;;16.20;99.90;;;;;;4966500;28;20225;-80
2021/05/11 06:28:14;;;;;;;9.10;5.10;;;16.30;99.90;;;;;;4963079;28;20217;-80
2021/05/11 06:30:59;;;;;;;9.90;5.43;;;16.40;99.90;;;;;;4964696;28;20225;-80
2021/05/11 06:33:45;;;;;;;12.40;5.83;;;16.50;99.90;;;;;;4967535;28;20720;-79
2021/05/11 06:36:30;;;;;;;12.73;5.63;;;16.60;99.90;;;;;;4967771;28;20236;-78
2021/05/11 06:39:16;;;;;;;8.53;5.10;;;16.60;99.90;;;;;;4971076;28;20217;-79
2021/05/11 06:42:01;;;;;;;10.10;5.63;;;16.80;99.90;;;;;;4968033;28;20210;-79
2021/05/11 06:45:01;;;;;;;11.53;6.27;;;16.90;99.90;;;;;;4970903;28;20225;-77
2021/05/11 06:47:58;;;;;;;9.27;4.97;;;17.00;99.90;;;;;;4973314;28;20582;-79
2021/05/11 06:53:51;;;;;;;7.80;5.33;;;17.20;99.90;;;;;;4959907;28;20296;-78
2021/05/11 06:56:38;;;;;;;8.10;5.20;;;17.30;99.90;;;;;;4970925;28;20440;-79
2021/05/11 06:59:23;;;;;;;9.83;5.10;;;17.40;99.90;;;;;;4972109;28;20321;-79
2021/05/11 07:02:08;;;;;;;11.07;5.83;;;17.40;99.90;;;;;;4974274;28;20230;-79
2021/05/11 07:04:53;;;;;;;9.70;5.20;;;17.50;99.90;;;;;;4973624;28;20788;-79
2021/05/11 07:07:40;;;;;;;8.10;4.40;;;17.60;99.90;;;;;;4975580;28;20238;-79
2021/05/11 07:10:27;;;;;;;9.87;5.40;;;17.80;99.90;;;;;;4975969;28;20258;-77
2021/05/11 07:13:13;;;;;;;12.13;5.40;;;17.90;99.90;;;;;;4985942;28;20245;-79
2021/05/11 07:15:58;;;;;;;10.17;5.67;;;18.00;99.90;;;;;;4964003;28;20206;-79
2021/05/11 07:18:43;;;;;;;8.80;4.93;;;18.10;99.90;;;;;;4976042;28;20222;-78
2021/05/11 07:21:28;;;;;;;11.07;4.63;;;18.20;99.90;;;;;;4967117;28;20267;-79
2021/05/11 07:24:13;;;;;;;9.43;4.37;;;18.30;99.90;;;;;;4975654;28;20213;-79
2021/05/11 07:27:15;;;;;;;11.73;4.57;;;18.30;99.90;;;;;;4979334;28;20235;-79
2021/05/11 07:30:11;;;;;;;8.77;4.67;;;18.40;99.90;;;;;;4966549;28;20270;-80
2021/05/11 07:32:57;;;;;;;8.73;4.47;;;18.50;99.90;;;;;;4959955;28;20219;-79
2021/05/11 07:35:42;;;;;;;8.97;4.63;;;18.60;99.90;;;;;;4968889;28;20217;-79
2021/05/11 07:38:28;;;;;;;9.67;4.47;;;18.70;99.90;;;;;;4973307;28;20289;-78
2021/05/11 07:41:14;;;;;;;8.47;4.60;;;18.90;99.90;;;;;;4971978;28;20333;-79
2021/05/11 07:43:59;;;;;;;6.80;4.00;;;19.10;99.90;;;;;;4971061;28;20374;-79
2021/05/11 07:46:54;;;;;;;10.60;4.77;;;19.30;99.90;;;;;;4967690;28;20857;-78
2021/05/11 08:02:23;;;;;;;9.53;3.70;;;20.60;99.90;;;;;;4971540;28;20273;-79
2021/05/11 08:05:16;;;;;;;9.70;3.50;;;20.90;99.90;;;;;;4971009;28;20213;-79
2021/05/11 08:14:31;;;;;;;7.73;3.37;;;21.40;99.90;;;;;;4968560;28;20231;-76
2021/05/11 08:17:18;;;;;;;9.57;4.80;;;21.60;99.90;;;;;;4964508;28;20214;-77
2021/05/11 08:20:29;;;;;;;9.90;3.57;;;21.70;99.90;;;;;;4968807;28;20239;-80
2021/05/11 08:23:25;;;;;;;10.47;4.47;;;21.80;99.90;;;;;;4969726;28;20207;-78
2021/05/11 08:29:13;;;;;;;8.00;3.37;;;22.00;99.90;;;;;;4965094;28;20265;-79
2021/05/11 08:31:58;;;;;;;8.90;3.77;;;22.00;99.90;;;;;;4981481;28;20223;-79
2021/05/11 08:34:45;;;;;;;8.43;3.87;;;22.00;99.90;;;;;;4961337;28;20262;-79
2021/05/11 08:37:30;;;;;;;7.13;4.03;;;22.00;99.90;;;;;;4973759;28;20218;-79
2021/05/11 08:40:16;;;;;;;10.53;4.37;;;21.90;99.90;;;;;;4963006;28;20233;-79
2021/05/11 08:43:06;;;;;;;8.13;4.40;;;22.00;99.90;;;;;;4980287;28;20232;-79
2021/05/11 08:45:51;;;;;;;8.93;4.23;;;22.00;99.90;;;;;;4969549;28;20209;-79
2021/05/11 08:48:36;;;;;;;11.80;4.33;;;21.90;99.90;;;;;;5007024;28;20209;-79
2021/05/11 08:51:27;;;;;;;10.93;4.50;;;21.90;99.90;;;;;;5009793;28;20820;-80
2021/05/11 08:54:22;;;;;;;9.63;4.30;;;21.80;99.90;;;;;;4962414;28;20225;-79
2021/05/11 09:06:35;;;;;;;11.03;4.10;;;21.60;99.90;;;;;;4974801;28;20212;-78
2021/05/11 09:09:43;;;;;;;8.93;5.00;;;21.50;99.90;;;;;;4977895;28;20357;-79
2021/05/11 09:24:57;;;;;;;10.40;5.90;;;21.40;99.90;;;;;;4967663;28;20212;-79
2021/05/11 09:27:59;;;;;;;11.37;6.93;;;21.20;99.90;;;;;;4976001;28;20269;-80
2021/05/11 09:30:59;;;;;;;9.60;6.47;;;21.10;99.90;;;;;;4957060;28;20295;-80
2021/05/11 09:33:52;;;;;;;9.63;6.27;;;21.00;99.90;;;;;;4960774;28;20630;-78
2021/05/11 09:55:11;;;;;;;8.60;6.27;;;20.50;99.90;;;;;;4965026;28;21040;-78
2021/05/11 09:58:02;;;;;;;11.53;5.10;;;20.50;99.90;;;;;;4969479;28;20216;-81
2021/05/11 10:46:42;;;;;;;9.10;5.00;;;22.80;99.90;;;;;;4976215;28;20241;-78
2021/05/11 10:49:28;;;;;;;10.20;4.93;;;23.20;99.90;;;;;;4961085;28;20323;-77
2021/05/11 10:52:21;;;;;;;8.57;3.87;;;23.60;99.90;;;;;;4967149;28;20668;-78
2021/05/11 10:55:11;;;;;;;6.03;3.30;;;23.90;99.90;;;;;;4971957;28;20233;-78
2021/05/11 10:57:58;;;;;;;4.77;3.07;;;24.10;99.90;;;;;;4970297;28;21018;-78
2021/05/11 11:00:57;;;;;;;5.50;3.00;;;24.40;99.90;;;;;;4965522;28;20328;-78
2021/05/11 11:04:08;;;;;;;7.63;3.40;;;24.60;99.90;;;;;;4971603;28;20593;-78
2021/05/11 11:07:06;;;;;;;7.37;3.60;;;24.70;98.50;;;;;;4965468;28;20215;-78
2021/05/11 11:10:00;;;;;;;7.60;4.20;;;24.80;97.80;;;;;;4975839;28;20234;-78
2021/05/11 11:12:48;;;;;;;8.80;4.50;;;24.80;96.90;;;;;;4971400;28;20232;-78
2021/05/11 11:15:37;;;;;;;5.97;4.53;;;24.80;97.10;;;;;;4968570;28;20588;-77
2021/05/11 11:18:28;;;;;;;11.80;4.47;;;24.90;96.50;;;;;;4973362;28;20300;-78
2021/05/11 11:21:23;;;;;;;11.00;5.60;;;24.70;97.10;;;;;;4975014;28;20270;-77
2021/05/11 11:24:11;;;;;;;10.60;5.43;;;24.80;96.50;;;;;;4977849;28;20264;-77
2021/05/11 11:27:02;;;;;;;8.17;4.83;;;24.80;96.70;;;;;;4975843;28;20203;-79
2021/05/11 11:30:01;;;;;;;8.50;3.93;;;24.70;96.70;;;;;;4975750;28;20234;-79
2021/05/11 11:32:49;;;;;;;8.60;4.30;;;24.60;95.90;;;;;;4974609;28;20270;-79
2021/05/11 11:35:35;;;;;;;9.67;4.93;;;24.50;95.20;;;;;;4977045;28;20304;-79
2021/05/11 11:38:25;;;;;;;10.27;4.20;;;24.40;95.40;;;;;;4963315;28;20221;-79
2021/05/11 11:41:10;;;;;;;13.03;5.07;;;24.30;96.30;;;;;;4970120;28;20287;-78
2021/05/11 11:43:58;;;;;;;8.43;4.30;;;24.10;95.30;;;;;;4966490;28;20297;-79
2021/05/11 11:46:44;;;;;;;10.90;5.03;;;24.00;96.00;;;;;;4969815;28;20267;-79
2021/05/11 11:49:31;;;;;;;8.63;4.63;;;23.80;95.80;;;;;;4970729;28;20231;-78
2021/05/11 11:52:23;;;;;;;6.90;4.03;;;23.70;96.20;;;;;;4971640;28;20655;-79
2021/05/11 11:55:24;;;;;;;8.10;4.50;;;23.50;96.20;;;;;;4989271;28;20293;-79
2021/05/11 11:58:09;;;;;;;12.70;4.57;;;23.30;96.50;;;;;;4982404;28;20211;-79
2021/05/11 12:00:54;;;;;;;9.93;4.23;;;23.20;96.30;;;;;;4977360;28;20262;-79
2021/05/11 12:03:39;;;;;;;6.67;3.70;;;22.90;97.20;;;;;;4971158;28;20228;-79
2021/05/11 12:06:29;;;;;;;10.00;4.77;;;22.90;96.60;;;;;;4970593;28;20288;-80
2021/05/11 12:09:15;;;;;;;7.10;4.07;;;22.70;97.40;;;;;;4971779;28;20230;-79
2021/05/11 12:12:01;;;;;;;7.63;4.30;;;22.70;97.90;;;;;;4969249;28;20283;-80
2021/05/11 12:14:46;;;;;;;11.03;4.67;;;22.60;98.20;;;;;;4964999;28;20584;-80
2021/05/11 12:17:31;;;;;;;7.97;4.17;;;22.50;97.90;;;;;;4972157;28;20223;-79
2021/05/11 12:20:24;;;;;;;16.20;6.53;;;22.40;98.40;;;;;;4978180;28;20778;-79
2021/05/11 12:23:14;;;;;;;9.37;5.67;;;22.40;97.90;;;;;;4980213;28;20587;-80
2021/05/11 12:26:01;;;;;;;13.03;5.30;;;22.30;98.70;;;;;;4975871;28;20596;-80
2021/05/11 12:28:46;;;;;;;10.43;4.90;;;22.30;98.00;;;;;;4967712;28;20203;-78
2021/05/11 12:31:36;;;;;;;8.97;5.00;;;22.20;98.20;;;;;;4969944;28;20220;-78
2021/05/11 12:34:24;;;;;;;9.77;4.80;;;22.20;98.30;;;;;;4974639;28;20224;-78
2021/05/11 12:37:08;;;;;;;8.23;5.10;;;22.10;99.00;;;;;;4969546;28;20260;-79
2021/05/11 12:39:57;;;;;;;11.40;5.70;;;22.10;98.80;;;;;;4978027;28;20225;-78
2021/05/11 12:42:43;;;;;;;8.77;4.60;;;22.00;99.50;;;;;;4971604;28;20211;-79
2021/05/11 12:45:31;;;;;;;11.13;4.70;;;22.10;99.90;;;;;;4968158;28;20261;-80
2021/05/11 12:48:16;;;;;;;10.27;5.47;;;21.90;99.90;;;;;;4976963;28;20212;-79
2021/05/11 12:51:01;;;;;;;12.80;6.00;;;21.80;99.10;;;;;;4974421;28;20321;-80
2021/05/11 12:53:48;;;;;;;10.97;5.47;;;21.80;99.90;;;;;;4974113;28;20218;-79
2021/05/11 12:56:44;;;;;;;8.30;5.07;;;21.70;99.90;;;;;;4974929;28;20210;-79
2021/05/11 12:59:36;;;;;;;9.40;5.47;;;21.70;99.60;;;;;;4975241;28;20233;-79
2021/05/11 13:02:36;;;;;;;10.40;5.33;;;21.60;99.90;;;;;;4969271;28;20214;-79
2021/05/11 13:15:05;;;;;;;10.40;5.80;;;21.50;99.90;;;;;;4970059;28;20233;-79
2021/05/11 13:21:01;;;;;;;12.17;7.17;;;21.50;99.90;;;;;;4987273;28;20288;-79
2021/05/11 13:26:52;;;;;;;12.03;7.27;;;21.40;99.90;;;;;;4968185;28;20681;-79
2021/05/11 13:29:50;;;;;;;13.50;6.93;;;21.40;99.90;;;;;;4973124;28;20246;-80
2021/05/11 13:32:48;;;;;;;12.07;7.47;;;21.30;99.90;;;;;;4954874;28;20253;-78
2021/05/11 13:35:33;;;;;;;10.53;6.97;;;21.20;99.90;;;;;;4971463;28;22181;-78
2021/05/11 13:38:18;;;;;;;11.07;6.63;;;21.10;99.90;;;;;;4965028;28;20218;-78
2021/05/11 13:41:03;;;;;;;12.17;7.03;;;21.00;99.90;;;;;;4972624;28;20231;-78
2021/05/11 13:43:48;;;;;;;9.00;5.90;;;20.90;99.90;;;;;;4973574;28;20304;-78
2021/05/11 13:46:34;;;;;;;12.33;6.43;;;20.90;99.90;;;;;;4977677;28;20213;-78
2021/05/11 13:49:21;;;;;;;12.33;5.90;;;20.90;99.90;;;;;;4978466;28;20214;-78
2021/05/11 13:52:06;;;;;;;7.90;5.03;;;20.80;99.90;;;;;;4972440;28;20621;-78
2021/05/11 13:54:55;;;;;;;12.73;5.60;;;20.70;99.90;;;;;;4982223;28;20592;-80
2021/05/11 14:03:47;;;;;;;10.63;6.80;;;20.60;99.90;;;;;;4978994;28;20612;-80
2021/05/11 14:06:32;;;;;;;9.87;6.17;;;20.50;99.90;;;;;;4978155;28;20722;-81
2021/05/11 14:09:17;;;;;;;11.07;6.67;;;20.40;99.90;;;;;;4977048;28;20302;-81
2021/05/11 14:12:05;;;;;;;15.13;8.00;;;20.30;99.90;;;;;;4970000;28;20227;-80
2021/05/11 14:14:50;;;;;;;9.77;6.93;;;20.30;99.90;;;;;;4978515;28;20213;-80
2021/05/11 14:17:34;;;;;;;12.10;7.97;;;20.20;99.90;;;;;;4995447;28;20744;-80
2021/05/11 14:20:20;;;;;;;12.70;8.90;;;20.20;99.90;;;;;;4991929;28;20307;-80
2021/05/11 14:23:05;;;;;;;10.57;7.83;;;20.00;99.90;;;;;;4994805;28;20218;-79
2021/05/11 14:25:50;;;;;;;10.80;7.50;;;20.10;99.90;;;;;;4997596;28;20208;-81
2021/05/11 14:28:35;;;;;;;13.20;7.73;;;19.90;99.90;;;;;;4981768;28;20477;-81
2021/05/11 14:31:23;;;;;;;11.70;7.63;;;19.80;99.90;;;;;;4994417;28;20225;-81
2021/05/11 14:34:09;;;;;;;10.53;7.30;;;19.90;99.90;;;;;;5002453;28;20231;-80
2021/05/11 14:36:55;;;;;;;12.87;8.67;;;19.60;99.90;;;;;;4985744;28;20239;-79
2021/05/11 14:39:41;;;;;;;11.93;8.20;;;19.60;99.90;;;;;;4986446;28;20235;-81
2021/05/11 14:42:28;;;;;;;13.57;8.60;;;19.50;99.90;;;;;;4989584;28;20680;-81
2021/05/11 14:45:14;;;;;;;12.87;7.73;;;19.40;99.90;;;;;;4970256;28;20258;-81
2021/05/11 14:47:59;;;;;;;13.77;8.97;;;19.30;99.90;;;;;;4974517;28;20211;-80
2021/05/11 14:50:44;;;;;;;15.47;9.83;;;19.30;99.90;;;;;;4987375;28;20612;-81
2021/05/11 14:53:30;;;;;;;14.47;10.23;;;19.20;99.90;;;;;;4987894;28;20588;-80
2021/05/11 14:56:15;;;;;;;13.70;10.67;;;19.00;99.90;;;;;;4973478;28;20216;-79
2021/05/11 14:59:03;;;;;;;13.43;10.47;;;19.10;99.90;;;;;;4988279;28;20733;-80
2021/05/11 15:01:48;;;;;;;15.33;11.43;;;19.00;99.90;;;;;;4980886;28;20203;-81
2021/05/11 15:04:33;;;;;;;17.67;12.20;;;18.90;99.90;;;;;;4990304;28;20263;-80
2021/05/11 15:07:18;;;;;;;15.77;12.60;;;18.90;99.90;;;;;;4976917;28;20209;-79
2021/05/11 15:10:05;;;;;;;15.40;13.67;;;18.80;99.90;;;;;;4997118;28;20311;-81
2021/05/11 15:12:50;;;;;;;16.73;13.83;;;18.80;99.90;;;;;;4987172;28;20214;-79
2021/05/11 15:15:36;;;;;;;17.43;15.00;;;18.70;99.90;;;;;;4972075;28;20287;-80
2021/05/11 15:18:21;;;;;;;17.43;15.07;;;18.60;99.90;;;;;;4987934;28;20205;-81
2021/05/11 15:21:07;;;;;;;18.37;15.23;;;18.60;99.90;;;;;;4985487;28;20234;-82
2021/05/11 15:23:52;;;;;;;18.10;14.97;;;18.60;99.90;;;;;;4984330;28;20841;-79
2021/05/11 15:26:38;;;;;;;16.53;14.70;;;18.50;99.90;;;;;;4985584;28;20234;-81
2021/05/11 15:29:23;;;;;;;18.67;15.83;;;18.40;99.90;;;;;;4979427;28;20228;-81
2021/05/11 15:32:36;;;;;;;16.73;14.60;;;18.40;99.90;;;;;;4972801;28;20202;-81
2021/05/11 15:35:23;;;;;;;16.67;14.83;;;18.30;99.90;;;;;;4985060;28;20214;-80
2021/05/11 15:38:09;;;;;;;18.80;15.60;;;18.30;99.90;;;;;;4983491;28;20251;-80
2021/05/11 15:40:55;;;;;;;21.43;17.57;;;18.20;99.90;;;;;;4984890;28;20268;-81
2021/05/11 15:43:40;;;;;;;20.17;16.17;;;18.20;99.90;;;;;;4972572;28;20214;-80
2021/05/11 15:46:25;;;;;;;18.67;15.33;;;18.10;99.90;;;;;;4985211;28;20610;-81
2021/05/11 15:49:10;;;;;;;19.40;15.30;;;18.10;99.90;;;;;;4980228;28;20213;-81
2021/05/11 15:51:55;;;;;;;16.67;14.43;;;18.00;99.90;;;;;;4980875;28;20222;-81
2021/05/11 15:54:40;;;;;;;13.80;12.17;;;18.00;99.90;;;;;;4986077;28;20221;-81
2021/05/11 15:57:25;;;;;;;15.83;12.67;;;18.00;99.90;;;;;;4973964;28;20264;-79
2021/05/11 16:00:12;;;;;;;15.20;12.17;;;17.90;99.90;;;;;;4982773;28;20274;-81
2021/05/11 16:03:00;;;;;;;14.40;12.90;;;17.90;99.90;;;;;;4982994;28;20316;-80
2021/05/11 16:05:45;;;;;;;14.87;12.37;;;17.80;99.90;;;;;;4975922;28;20266;-80
2021/05/11 16:08:31;;;;;;;14.60;11.33;;;17.70;99.90;;;;;;4977703;28;20843;-80
2021/05/11 16:11:16;;;;;;;12.90;11.13;;;17.70;99.90;;;;;;4981023;28;20311;-81
2021/05/11 16:14:00;;;;;;;13.10;10.87;;;17.60;99.90;;;;;;4981587;28;20217;-81
2021/05/11 16:16:46;;;;;;;13.63;12.00;;;17.60;99.90;;;;;;4980126;28;20237;-81
2021/05/11 16:19:31;;;;;;;15.23;11.80;;;17.60;99.90;;;;;;4982055;28;20324;-80
2021/05/11 16:22:16;;;;;;;14.20;11.70;;;17.50;99.90;;;;;;4976833;28;20201;-80
2021/05/11 16:25:02;;;;;;;15.13;12.30;;;17.50;99.90;;;;;;4982726;28;20725;-79
2021/05/11 16:27:46;;;;;;;15.17;12.70;;;17.50;99.90;;;;;;4979311;28;20798;-79
2021/05/11 16:30:32;;;;;;;17.63;13.37;;;17.50;99.90;;;;;;4980282;28;20232;-81
2021/05/11 16:33:18;;;;;;;17.30;13.00;;;17.40;99.90;;;;;;4974116;28;20208;-80
2021/05/11 16:36:03;;;;;;;16.27;13.60;;;17.30;99.90;;;;;;4982236;28;20250;-81
2021/05/11 16:38:48;;;;;;;15.33;12.73;;;17.40;99.90;;;;;;4980619;28;20279;-80
2021/05/11 16:41:33;;;;;;;16.10;13.50;;;17.40;99.90;;;;;;4978787;28;20217;-80
2021/05/11 16:44:18;;;;;;;16.07;12.60;;;17.40;99.90;;;;;;4979896;28;20245;-78
2021/05/11 16:47:04;;;;;;;15.23;12.43;;;17.40;99.90;;;;;;4983723;28;20205;-77
2021/05/11 16:49:50;;;;;;;15.97;11.87;;;17.30;99.90;;;;;;4979540;28;20238;-79
2021/05/11 16:52:34;;;;;;;15.37;10.57;;;17.30;99.90;;;;;;4983270;28;20360;-82
2021/05/11 16:55:19;;;;;;;13.73;11.77;;;17.30;99.90;;;;;;4982908;28;20214;-81
2021/05/11 16:58:05;;;;;;;13.90;11.50;;;17.30;99.90;;;;;;4985598;28;20217;-81
2021/05/11 17:00:50;;;;;;;18.47;13.10;;;17.30;99.90;;;;;;4983723;28;20229;-82
2021/05/11 17:03:35;;;;;;;14.53;12.13;;;17.30;99.90;;;;;;4978827;28;20214;-81
2021/05/11 17:06:21;;;;;;;14.53;12.10;;;17.40;99.90;;;;;;4983843;28;20205;-80
2021/05/11 17:09:07;;;;;;;15.70;12.67;;;17.30;99.90;;;;;;4982941;28;21142;-81
2021/05/11 17:11:52;;;;;;;16.80;13.20;;;17.30;99.90;;;;;;4988213;28;20699;-80
2021/05/11 17:14:38;;;;;;;13.60;11.63;;;17.30;99.90;;;;;;4978023;28;20416;-81